Bloomington, IL (61701)

6:57 PM CDT on April 19, 2015 (GMT -0500)
Across from IWU | | Change Station
CLOSE
Current Station
Personal Weather Station
Location: Bloomington, IL
Elevation: 810 ft
Nearby Weather Stations

Elev 810 ft 40.49 °N, 88.99 °W | Updated 2 minutes ago

Overcast
Overcast
54.9 °F
Feels Like 54.9 °F
N
1.0
Wind Variable Wind from WNW
Gusts 6.0 mph

Today
High -- | Low -- °F
--% Chance of Precip.
Yesterday
High -- | Low -- °F
Precip. -- in
6:11 AM 7:39 PM
New Moon, 2% visible
Pressure 29.44 in
Visibility 1.0 miles
Clouds Overcast 200 ft
Dew Point 54 °F
Humidity 96%
Rainfall 0.45 in
Snow Depth Not available.
UV 0 out of 12
Pollen 5.70 out of 12
Air Quality Not available.
Flu Activity Regional
METAR KBMI 192256Z 02007KT 1SM R29/P6000FT -RA BR OVC002 13/13 A2945 RMK AO2 T01270127 P0000 SLP970

More Conditions Fewer Conditions

Pressure 29.44 in
Visibility 1.0 miles
Clouds Overcast 200 ft
Dew Point 54 °F
Humidity 96%
Rainfall 0.45 in
Snow Depth Not available.
UV 0 out of 12
Pollen 5.70 out of 12
Air Quality Not available.
Flu Activity Regional
METAR KBMI 192256Z 02007KT 1SM R29/P6000FT -RA BR OVC002 13/13 A2945 RMK AO2 T01270127 P0000 SLP970

More Conditions Fewer Conditions

10-Day Weather Forecast

Almanac

Astronomy

Apr. 19, 2015 Rise Set
Actual Time
Civil Twilight
Nautical Twilight
Astronomical Twilight
Moon
Length of Visible Light
Length of Day
Tomorrow will be .
, % of the Moon is Illuminated

Today's Extremes

State Highs State Lows

Community

WunderPhotos

Upload Photos

1,815,036 photos uploaded!

WunderBlogs® & News

Nearby

Air Quality

  Air Quality AQ Index Pollutant
Not available.

Snow Depth

Station Depth Elevation

Earthquake Activity

City Distance Mag. Time & Date
Minimum magnitude displayed is 2.5.

Coastal Water Temperatures

Place Temperature

Stations

Nearby Weather Stations

Station Location Temp. Windchill Dew Point Humidity Wind Precip. Elev Updated Type